createdAt,value
2023-08-07T00:00:41.372Z,0.73
2023-08-07T00:01:53.116Z,0.80
2023-08-07T00:03:04.952Z,0.50
2023-08-07T00:04:16.575Z,0.50
2023-08-07T00:05:28.186Z,0.40
2023-08-07T00:06:39.646Z,0.77
2023-08-07T00:07:51.203Z,0.60
2023-08-07T00:09:02.663Z,0.77
2023-08-07T00:10:14.558Z,0.60
2023-08-07T00:11:26.117Z,0.40
2023-08-07T00:12:37.850Z,0.50
2023-08-07T00:13:49.371Z,0.57
2023-08-07T00:15:01.829Z,0.50
2023-08-07T00:16:13.359Z,0.80
2023-08-07T00:17:24.884Z,0.73
2023-08-07T00:18:36.346Z,0.60
2023-08-07T00:19:47.842Z,0.50
2023-08-07T00:20:59.390Z,0.50
2023-08-07T00:22:10.881Z,0.50
2023-08-07T00:23:22.395Z,0.47
2023-08-07T00:24:33.914Z,0.50
2023-08-07T00:25:45.409Z,0.63
2023-08-07T00:26:57.247Z,0.60
2023-08-07T00:28:09.174Z,0.57
2023-08-07T00:29:20.688Z,0.57
2023-08-07T00:30:32.180Z,0.57
2023-08-07T00:31:43.681Z,0.57
2023-08-07T00:32:56.250Z,0.50
2023-08-07T00:34:07.765Z,0.60
2023-08-07T00:35:19.224Z,0.60
2023-08-07T00:36:32.339Z,0.73
2023-08-07T00:37:43.842Z,0.40
2023-08-07T00:38:55.423Z,0.50
2023-08-07T00:40:07.221Z,0.50
2023-08-07T00:41:19.468Z,0.70
2023-08-07T00:42:30.964Z,0.70
2023-08-07T00:43:42.768Z,0.50
2023-08-07T00:44:55.065Z,0.50
2023-08-07T00:46:06.711Z,0.67
2023-08-07T00:47:18.272Z,1.07
2023-08-07T00:48:30.612Z,0.50
2023-08-07T00:49:42.131Z,0.70
2023-08-07T00:50:54.544Z,0.50
2023-08-07T00:52:06.185Z,0.67
2023-08-07T00:53:17.721Z,0.50
2023-08-07T00:54:29.249Z,0.60
2023-08-07T00:55:40.804Z,0.53
2023-08-07T00:56:52.578Z,1.50
2023-08-07T00:58:04.301Z,0.63
2023-08-07T00:59:16.165Z,0.60
2023-08-07T01:00:29.697Z,0.70
2023-08-07T01:01:41.324Z,0.80
2023-08-07T01:02:53.458Z,0.50
2023-08-07T01:04:05.165Z,0.67
2023-08-07T01:05:16.817Z,0.67
2023-08-07T01:06:28.342Z,0.77
2023-08-07T01:07:39.860Z,0.70
2023-08-07T01:08:51.681Z,0.60
2023-08-07T01:10:07.462Z,0.67
2023-08-07T01:11:19.045Z,0.83
2023-08-07T01:12:37.290Z,0.77
2023-08-07T01:14:07.029Z,0.60
2023-08-07T01:15:22.827Z,0.60
2023-08-07T01:16:41.271Z,0.70
2023-08-07T01:17:53.495Z,0.50
2023-08-07T01:19:05.646Z,0.90
2023-08-07T01:20:17.183Z,0.50
2023-08-07T01:21:28.784Z,0.70
2023-08-07T01:22:40.291Z,0.80
2023-08-07T01:23:51.833Z,0.50
2023-08-07T01:25:03.345Z,0.60
2023-08-07T01:26:20.101Z,0.60
2023-08-07T01:27:34.838Z,0.73
2023-08-07T01:28:51.445Z,0.70
2023-08-07T01:30:22.109Z,0.70
2023-08-07T01:31:35.778Z,0.50
2023-08-07T01:33:06.410Z,0.70
2023-08-07T01:34:19.515Z,1.53
2023-08-07T01:35:34.192Z,1.30
2023-08-07T01:36:46.484Z,3.40
2023-08-07T01:37:58.468Z,5.53
2023-08-07T01:39:10.179Z,6.40
2023-08-07T01:40:22.942Z,6.50
2023-08-07T01:41:35.832Z,5.13
2023-08-07T01:42:48.399Z,4.20
2023-08-07T01:44:00.079Z,3.17
2023-08-07T01:45:11.683Z,3.97
2023-08-07T01:46:23.257Z,3.40
2023-08-07T01:47:35.264Z,3.40
2023-08-07T01:48:46.801Z,3.13
2023-08-07T01:49:58.260Z,2.73
2023-08-07T01:51:09.756Z,2.10
2023-08-07T01:52:21.636Z,2.73
2023-08-07T01:53:33.143Z,1.37
2023-08-07T01:54:44.657Z,1.20
2023-08-07T01:55:56.151Z,1.13
2023-08-07T01:57:07.686Z,1.63
2023-08-07T01:58:19.195Z,1.50
2023-08-07T01:59:30.659Z,0.87
2023-08-07T02:00:42.154Z,0.90
2023-08-07T02:01:53.648Z,0.87
2023-08-07T02:03:05.246Z,0.60
2023-08-07T02:04:16.771Z,0.87
2023-08-07T02:05:28.236Z,0.70
2023-08-07T02:06:39.761Z,0.80
2023-08-07T02:07:51.232Z,0.70
2023-08-07T02:09:02.810Z,0.50
2023-08-07T02:10:14.279Z,0.80
2023-08-07T02:11:25.815Z,0.87
2023-08-07T02:12:37.290Z,0.83
2023-08-07T02:13:49.226Z,1.00
2023-08-07T02:15:01.077Z,0.70
2023-08-07T02:16:12.606Z,0.60
2023-08-07T02:17:24.460Z,0.83
2023-08-07T02:18:36.888Z,0.77
2023-08-07T02:19:48.386Z,0.67
2023-08-07T02:20:59.881Z,0.80
2023-08-07T02:22:12.083Z,0.60
2023-08-07T02:23:23.553Z,0.60
2023-08-07T02:24:35.149Z,0.63
2023-08-07T02:25:46.781Z,0.80
2023-08-07T02:26:58.314Z,0.83
2023-08-07T02:28:09.823Z,0.70
2023-08-07T02:29:23.529Z,0.70
2023-08-07T02:30:35.044Z,0.80
2023-08-07T02:31:46.636Z,0.80
2023-08-07T02:32:58.158Z,0.80
2023-08-07T02:34:09.671Z,0.80
2023-08-07T02:35:21.150Z,1.87
2023-08-07T02:36:32.726Z,0.87
2023-08-07T02:37:44.303Z,0.90
2023-08-07T02:38:55.777Z,0.80
2023-08-07T02:40:07.561Z,0.70
2023-08-07T02:41:19.061Z,0.77
2023-08-07T02:42:30.552Z,0.50
2023-08-07T02:43:42.024Z,0.60
2023-08-07T02:44:53.535Z,0.90
2023-08-07T02:46:05.104Z,0.93
2023-08-07T02:47:16.666Z,0.70
2023-08-07T02:48:28.143Z,1.43
2023-08-07T02:49:40.801Z,0.70
2023-08-07T02:50:52.755Z,0.70
2023-08-07T02:52:04.402Z,0.73
2023-08-07T02:53:15.971Z,0.67
2023-08-07T02:54:27.476Z,0.63
2023-08-07T02:55:38.969Z,0.60
2023-08-07T02:56:50.481Z,0.70
2023-08-07T02:58:01.956Z,0.87
2023-08-07T02:59:13.422Z,1.10
2023-08-07T03:00:24.899Z,0.90
2023-08-07T03:01:36.597Z,0.80
2023-08-07T03:02:48.215Z,0.70
2023-08-07T03:03:59.758Z,0.90
2023-08-07T03:05:11.449Z,0.70
2023-08-07T03:06:23.075Z,1.00
2023-08-07T03:07:34.603Z,0.60
2023-08-07T03:08:46.169Z,0.80
2023-08-07T03:09:57.664Z,1.10
2023-08-07T03:11:09.188Z,0.93
2023-08-07T03:12:20.661Z,0.57
2023-08-07T03:13:32.173Z,0.60
2023-08-07T03:14:43.638Z,0.57
2023-08-07T03:16:01.693Z,0.60
2023-08-07T03:17:13.220Z,0.73
2023-08-07T03:18:24.753Z,0.70
2023-08-07T03:19:36.274Z,0.90
2023-08-07T03:20:47.793Z,0.80
2023-08-07T03:21:59.277Z,0.50
2023-08-07T03:23:11.150Z,1.20
2023-08-07T03:24:22.675Z,0.70
2023-08-07T03:25:34.141Z,0.67
2023-08-07T03:26:45.682Z,0.70
2023-08-07T03:27:57.231Z,0.70
2023-08-07T03:29:08.780Z,1.00
2023-08-07T03:30:20.363Z,0.93
2023-08-07T03:31:31.958Z,0.80
2023-08-07T03:32:43.488Z,0.77
2023-08-07T03:33:55.018Z,0.60
2023-08-07T03:35:06.669Z,0.87
2023-08-07T03:36:18.154Z,0.50
2023-08-07T03:37:29.688Z,0.77
2023-08-07T03:38:41.143Z,1.00
2023-08-07T03:39:53.234Z,0.70
2023-08-07T03:41:04.890Z,1.23
2023-08-07T03:42:16.553Z,0.70
2023-08-07T03:43:28.057Z,0.70
2023-08-07T03:44:39.545Z,1.30
2023-08-07T07:19:26.253Z,0.57
2023-08-07T07:20:38.015Z,0.93
2023-08-07T07:21:49.594Z,1.25
2023-08-07T07:23:01.175Z,0.60
2023-08-07T07:24:12.630Z,0.70
2023-08-07T07:25:24.194Z,0.50
2023-08-07T07:26:35.672Z,0.65
2023-08-07T07:27:47.226Z,0.50
2023-08-07T07:28:58.813Z,0.50
2023-08-07T07:30:10.854Z,0.65
2023-08-07T07:31:22.452Z,0.40
2023-08-07T07:32:34.019Z,0.50
2023-08-07T07:33:45.573Z,0.40
2023-08-07T07:34:57.112Z,0.47
2023-08-07T07:56:31.406Z,0.40
2023-08-07T07:57:42.956Z,0.32
2023-08-07T07:58:54.460Z,0.47
2023-08-07T08:00:11.405Z,0.50
2023-08-07T08:01:22.940Z,0.50
2023-08-07T08:02:34.508Z,0.80
2023-08-07T08:03:46.156Z,0.60
2023-08-07T08:04:57.766Z,0.68
2023-08-07T08:06:10.236Z,0.90
2023-08-07T08:07:21.737Z,0.60
2023-08-07T08:08:33.229Z,0.50
2023-08-07T08:09:44.779Z,0.38
2023-08-07T08:10:56.320Z,0.70
2023-08-07T08:12:08.033Z,0.40
2023-08-07T08:13:19.764Z,0.55
2023-08-07T08:14:40.085Z,0.75
2023-08-07T08:16:00.748Z,0.30
2023-08-07T08:17:12.253Z,0.60
2023-08-07T08:18:23.789Z,0.50
2023-08-07T08:19:45.557Z,0.50
2023-08-07T08:21:02.044Z,0.50
2023-08-07T08:22:13.609Z,0.40
2023-08-07T08:23:25.158Z,0.65
2023-08-07T08:24:36.638Z,0.47
2023-08-07T08:25:49.179Z,0.40
2023-08-07T08:27:01.148Z,0.93
2023-08-07T08:28:12.630Z,0.52
2023-08-07T08:29:24.180Z,1.10
2023-08-07T08:30:35.658Z,0.73
2023-08-07T08:31:47.107Z,0.52
2023-08-07T08:32:58.662Z,0.70
2023-08-07T08:34:10.208Z,0.80
2023-08-07T08:35:21.749Z,1.50
2023-08-07T08:36:33.315Z,0.75
2023-08-07T08:37:44.988Z,0.60
2023-08-07T08:38:56.503Z,0.80
2023-08-07T08:40:09.472Z,0.60
2023-08-07T08:41:21.054Z,0.40
2023-08-07T08:42:32.550Z,0.57
2023-08-07T08:43:45.136Z,0.57
2023-08-07T08:44:57.066Z,0.50
2023-08-07T08:46:11.011Z,0.40
2023-08-07T08:47:26.380Z,0.50
2023-08-07T08:48:39.562Z,0.60
2023-08-07T08:49:52.416Z,0.75
2023-08-07T08:51:05.108Z,0.40
2023-08-07T08:52:17.037Z,0.47
2023-08-07T08:53:28.794Z,0.57
2023-08-07T08:54:41.394Z,0.47
2023-08-07T08:55:53.398Z,0.45
2023-08-07T08:57:05.139Z,0.52
2023-08-07T08:58:17.626Z,0.60
2023-08-07T08:59:29.366Z,0.40
2023-08-07T09:00:41.310Z,0.52
2023-08-07T09:01:53.996Z,0.70
2023-08-07T09:03:05.599Z,0.50
2023-08-07T09:04:17.346Z,0.38
2023-08-07T09:05:29.059Z,0.60
2023-08-07T09:06:42.697Z,0.47
2023-08-07T09:07:57.105Z,0.40
2023-08-07T09:09:09.591Z,0.50
2023-08-07T09:10:21.751Z,0.45
2023-08-07T09:11:34.776Z,0.50
2023-08-07T09:12:50.360Z,0.43
2023-08-07T09:14:03.452Z,0.50
2023-08-07T09:15:17.076Z,0.60
2023-08-07T09:16:29.182Z,0.70
2023-08-07T09:17:42.351Z,0.68
2023-08-07T09:18:55.681Z,0.60
2023-08-07T09:20:11.892Z,0.82
2023-08-07T09:21:23.502Z,0.52
2023-08-07T09:22:34.999Z,0.43
2023-08-07T09:23:46.617Z,0.63
2023-08-07T09:25:01.077Z,0.63
2023-08-07T09:26:12.674Z,0.55
2023-08-07T09:27:24.595Z,0.40
2023-08-07T09:28:36.745Z,0.63
2023-08-07T09:29:48.483Z,0.70
2023-08-07T09:31:00.350Z,0.65
2023-08-07T09:32:15.147Z,0.50
2023-08-07T09:33:27.639Z,0.70
2023-08-07T09:34:43.149Z,0.73
2023-08-07T09:35:58.562Z,0.50
2023-08-07T09:37:10.151Z,0.50
2023-08-07T09:38:24.050Z,0.60
2023-08-07T09:39:38.411Z,0.40
2023-08-07T09:40:50.034Z,0.75
2023-08-07T09:42:01.565Z,0.57
2023-08-07T09:43:21.386Z,0.50
2023-08-07T09:44:39.060Z,0.50
2023-08-07T09:45:53.623Z,0.50
2023-08-07T09:47:12.669Z,0.50
2023-08-07T09:48:26.008Z,0.60
2023-08-07T09:49:37.505Z,0.43
2023-08-07T09:50:48.986Z,0.50
2023-08-07T09:52:06.378Z,0.50
2023-08-07T09:53:17.969Z,0.68
2023-08-07T09:54:29.477Z,0.57
2023-08-07T09:55:40.950Z,0.60
2023-08-07T09:56:58.750Z,0.98
2023-08-07T09:58:13.375Z,0.60
2023-08-07T09:59:24.870Z,0.55
2023-08-07T10:00:36.976Z,0.60
2023-08-07T10:01:48.960Z,0.65
2023-08-07T10:03:01.221Z,0.70
2023-08-07T10:04:16.827Z,0.50
2023-08-07T10:05:30.444Z,0.50
2023-08-07T10:06:43.692Z,0.45
2023-08-07T10:07:56.180Z,0.40
2023-08-07T10:09:08.609Z,0.40
2023-08-07T10:10:20.779Z,0.70
2023-08-07T10:11:32.332Z,0.60
2023-08-07T10:12:47.272Z,0.60
2023-08-07T10:13:59.611Z,0.50
2023-08-07T10:15:11.294Z,0.60
2023-08-07T10:16:22.928Z,0.68
2023-08-07T10:17:35.177Z,0.50
2023-08-07T10:18:46.795Z,0.50
2023-08-07T10:19:58.523Z,0.50
2023-08-07T10:21:10.146Z,0.60
2023-08-07T10:22:24.517Z,0.43
2023-08-07T10:23:36.479Z,0.43
2023-08-07T10:24:51.344Z,0.50
2023-08-07T10:26:05.087Z,0.50
2023-08-07T10:27:20.236Z,0.77
2023-08-07T10:28:32.452Z,0.50
2023-08-07T10:29:45.195Z,0.70
2023-08-07T10:30:56.894Z,0.50
2023-08-07T10:32:08.740Z,0.60
2023-08-07T10:33:21.396Z,0.50
2023-08-07T10:34:35.916Z,0.70
2023-08-07T10:35:49.446Z,0.55
2023-08-07T10:37:00.968Z,0.80
2023-08-07T10:38:12.602Z,0.73
2023-08-07T10:39:24.194Z,0.40
2023-08-07T10:40:55.606Z,0.50
2023-08-07T10:42:07.215Z,0.60
2023-08-07T10:43:18.939Z,0.60
2023-08-07T10:44:34.118Z,0.40
2023-08-07T10:45:45.684Z,0.70
2023-08-07T10:46:58.195Z,0.35
2023-08-07T10:48:12.081Z,0.60
2023-08-07T10:49:37.926Z,0.40
2023-08-07T10:51:01.149Z,0.75
2023-08-07T10:52:14.382Z,0.55
2023-08-07T10:53:28.743Z,0.50
2023-08-07T10:54:44.424Z,0.70
2023-08-07T10:55:58.883Z,0.88
2023-08-07T10:57:14.752Z,0.50
2023-08-07T10:58:27.080Z,1.02
2023-08-07T10:59:39.064Z,0.60
2023-08-07T11:00:51.597Z,0.60
2023-08-07T11:02:03.141Z,0.50
2023-08-07T11:03:21.063Z,0.85
2023-08-07T11:04:33.422Z,0.63
2023-08-07T11:05:44.946Z,0.85
2023-08-07T11:06:56.620Z,0.90
2023-08-07T11:08:08.433Z,0.50
2023-08-07T11:09:19.989Z,0.77
2023-08-07T11:10:31.536Z,0.57
2023-08-07T11:11:47.420Z,0.82
2023-08-07T11:12:59.714Z,1.05
2023-08-07T11:14:12.456Z,0.60
2023-08-07T11:15:23.998Z,0.70
2023-08-07T11:16:35.972Z,0.70
2023-08-07T11:17:47.538Z,0.60
2023-08-07T11:18:59.163Z,0.50
2023-08-07T11:20:12.000Z,0.52
2023-08-07T11:21:27.914Z,0.52
2023-08-07T11:22:40.483Z,0.50
2023-08-07T11:23:52.949Z,0.60
2023-08-07T11:25:04.766Z,0.60
2023-08-07T11:26:16.402Z,0.63
2023-08-07T11:27:28.159Z,0.57
2023-08-07T11:28:39.714Z,0.52
2023-08-07T11:29:51.307Z,0.57
2023-08-07T11:31:02.894Z,0.90
2023-08-07T11:32:15.040Z,0.60
2023-08-07T11:33:27.297Z,0.57
2023-08-07T11:34:38.860Z,0.70
2023-08-07T11:35:50.774Z,0.50
2023-08-07T11:37:02.389Z,0.63
2023-08-07T11:38:14.220Z,0.50
2023-08-07T11:39:26.213Z,0.80
2023-08-07T11:40:37.671Z,0.50
2023-08-07T11:41:51.328Z,0.52
2023-08-07T11:43:02.910Z,0.70
2023-08-07T11:44:14.438Z,0.85
2023-08-07T11:45:26.070Z,0.70
2023-08-07T11:46:37.787Z,0.50
2023-08-07T11:47:49.502Z,0.90
2023-08-07T11:49:01.168Z,0.45
2023-08-07T11:50:12.727Z,0.93
2023-08-07T11:51:24.599Z,0.63
2023-08-07T11:52:36.524Z,0.60
2023-08-07T11:53:48.640Z,0.88
2023-08-07T11:55:02.790Z,0.60
2023-08-07T11:56:18.763Z,0.55
2023-08-07T11:57:30.739Z,0.50
2023-08-07T11:58:43.352Z,0.88
2023-08-07T11:59:54.866Z,0.40
2023-08-07T12:01:27.240Z,0.57
2023-08-07T12:02:39.044Z,0.70
2023-08-07T12:03:57.512Z,0.50
2023-08-07T12:05:12.007Z,1.23
2023-08-07T12:06:24.535Z,0.57
2023-08-07T12:07:36.044Z,0.60
2023-08-07T12:08:49.400Z,0.43
2023-08-07T12:10:02.929Z,0.90
2023-08-07T12:11:14.485Z,0.65
2023-08-07T12:12:25.976Z,0.63
2023-08-07T12:13:41.714Z,0.95
2023-08-07T12:14:53.867Z,0.60
2023-08-07T12:16:05.466Z,0.60
2023-08-07T12:17:17.365Z,0.60
2023-08-07T12:18:29.210Z,1.00
2023-08-07T12:19:41.828Z,0.52
2023-08-07T12:20:53.929Z,0.55
2023-08-07T12:22:07.523Z,0.40
2023-08-07T12:23:19.811Z,0.70
2023-08-07T12:24:31.382Z,0.60
2023-08-07T12:25:42.993Z,0.90
2023-08-07T12:26:54.534Z,0.65
2023-08-07T12:28:06.201Z,0.47
2023-08-07T12:29:17.686Z,0.55
2023-08-07T12:30:29.584Z,0.50
2023-08-07T12:31:42.142Z,0.60
2023-08-07T12:32:54.159Z,0.60
2023-08-07T12:35:20.144Z,0.68
2023-08-07T12:36:31.705Z,0.50
2023-08-07T12:37:43.212Z,0.40
2023-08-07T12:38:54.758Z,0.50
2023-08-07T12:42:36.112Z,0.60
2023-08-07T12:43:47.711Z,0.40
2023-08-07T12:44:59.716Z,0.50
2023-08-07T12:47:26.154Z,0.52
2023-08-07T13:34:07.669Z,1.08
2023-08-07T13:35:19.161Z,0.43
2023-08-07T13:36:30.742Z,0.40
2023-08-07T13:37:42.305Z,0.70
2023-08-07T13:38:53.902Z,0.80
2023-08-07T13:40:06.949Z,0.85
2023-08-07T13:41:18.550Z,0.60
2023-08-07T13:42:30.130Z,0.55
2023-08-07T13:43:41.638Z,0.50
2023-08-07T13:44:53.382Z,1.05
2023-08-07T13:46:04.902Z,0.52
2023-08-07T13:47:19.105Z,0.88
2023-08-07T13:48:30.719Z,1.00
2023-08-07T13:49:42.626Z,0.55
2023-08-07T13:50:54.290Z,0.47
2023-08-07T13:52:05.878Z,0.80
2023-08-07T13:53:17.413Z,0.80
2023-08-07T13:54:29.283Z,0.82
2023-08-07T13:55:41.538Z,0.65
2023-08-07T13:56:53.138Z,2.15
2023-08-07T13:58:04.960Z,1.08
2023-08-07T13:59:16.546Z,0.70
2023-08-07T14:00:28.239Z,0.65
2023-08-07T14:01:39.752Z,0.77
2023-08-07T14:02:51.450Z,0.55
2023-08-07T14:04:03.412Z,0.60
2023-08-07T14:05:15.428Z,0.70
2023-08-07T14:06:26.967Z,0.60
2023-08-07T14:07:38.494Z,0.63
2023-08-07T14:08:49.989Z,0.75
2023-08-07T14:10:01.488Z,0.70
2023-08-07T14:11:15.548Z,0.60
2023-08-07T14:12:28.190Z,0.80
2023-08-07T14:13:39.677Z,0.45
2023-08-07T14:14:51.185Z,0.68
2023-08-07T14:16:02.748Z,0.80
2023-08-07T14:17:14.220Z,0.80
2023-08-07T14:18:26.784Z,0.75
2023-08-07T14:19:38.465Z,0.70
2023-08-07T14:21:02.079Z,0.60
2023-08-07T14:22:14.825Z,0.60
2023-08-07T14:23:26.690Z,0.70
2023-08-07T14:24:38.648Z,0.70
2023-08-07T14:25:51.959Z,0.60
2023-08-07T14:27:03.589Z,0.60
2023-08-07T14:28:15.259Z,0.60
2023-08-07T14:29:26.866Z,0.63
2023-08-07T14:30:38.518Z,0.82
2023-08-07T14:31:50.078Z,0.60
2023-08-07T14:33:01.634Z,0.57
2023-08-07T14:34:13.149Z,0.80
2023-08-07T14:35:24.656Z,0.75
2023-08-07T14:36:36.810Z,0.43
2023-08-07T14:37:49.709Z,0.70
2023-08-07T14:39:01.345Z,0.82
2023-08-07T14:40:13.221Z,0.68
2023-08-07T14:41:24.971Z,0.95
2023-08-07T14:42:36.985Z,0.70
2023-08-07T14:43:48.932Z,0.80
2023-08-07T14:45:00.993Z,0.77
2023-08-07T14:46:12.773Z,0.77
2023-08-07T14:47:25.209Z,0.57
2023-08-07T14:48:37.541Z,0.93
2023-08-07T14:49:49.441Z,0.70
2023-08-07T14:51:01.757Z,0.90
2023-08-07T14:52:16.196Z,0.80
2023-08-07T14:53:28.775Z,0.65
2023-08-07T14:54:40.739Z,0.60
2023-08-07T14:55:52.470Z,0.70
2023-08-07T14:57:04.286Z,0.85
2023-08-07T14:58:16.123Z,0.70
2023-08-07T14:59:28.306Z,0.70
2023-08-07T15:00:40.096Z,0.90
2023-08-07T15:01:52.020Z,0.88
2023-08-07T15:03:04.567Z,1.10
2023-08-07T15:06:22.952Z,2.42
2023-08-07T15:07:35.489Z,1.08
2023-08-07T15:08:46.994Z,0.90
2023-08-07T15:09:58.513Z,0.90
2023-08-07T15:11:10.080Z,0.85
2023-08-07T15:12:21.547Z,0.70
2023-08-07T15:13:34.308Z,0.60
2023-08-07T15:14:46.482Z,0.60
2023-08-07T15:15:58.162Z,0.93
2023-08-07T15:17:09.658Z,0.70
2023-08-07T15:18:21.944Z,0.70
2023-08-07T15:19:33.457Z,0.80
2023-08-07T15:20:45.375Z,0.65
2023-08-07T15:21:57.170Z,0.50
2023-08-07T15:23:08.910Z,0.45
2023-08-07T15:24:20.810Z,0.77
2023-08-07T15:25:32.427Z,0.75
2023-08-07T15:26:44.084Z,0.73
2023-08-07T15:27:56.282Z,0.68
2023-08-07T15:29:07.852Z,0.68
2023-08-07T15:30:19.428Z,0.80
2023-08-07T15:31:30.992Z,0.70
2023-08-07T15:32:42.619Z,0.60
2023-08-07T15:33:54.219Z,0.75
2023-08-07T15:35:05.892Z,0.90
2023-08-07T15:36:17.470Z,0.63
2023-08-07T15:37:28.931Z,0.80
2023-08-07T15:38:40.472Z,0.65
2023-08-07T15:39:51.999Z,0.73
2023-08-07T15:41:03.737Z,1.08
2023-08-07T15:42:15.239Z,0.30
2023-08-07T15:43:26.800Z,0.63
2023-08-07T15:44:39.613Z,0.95
2023-08-07T15:45:53.456Z,0.68
2023-08-07T15:47:05.492Z,0.80
2023-08-07T15:48:16.989Z,0.88
2023-08-07T15:49:28.459Z,1.00
2023-08-07T15:50:40.437Z,0.80
2023-08-07T15:51:52.567Z,0.65
2023-08-07T15:53:04.183Z,0.80
2023-08-07T15:54:15.669Z,0.68
2023-08-07T15:55:27.219Z,0.60
2023-08-07T15:56:38.843Z,1.02
2023-08-07T15:57:50.415Z,0.47
2023-08-07T15:59:01.946Z,0.75
2023-08-07T16:00:14.391Z,0.70
2023-08-07T16:01:25.951Z,0.60
2023-08-07T16:02:37.535Z,0.70
2023-08-07T16:03:49.125Z,0.68
2023-08-07T16:05:00.624Z,0.60
2023-08-07T16:06:12.135Z,0.50
2023-08-07T16:07:23.701Z,0.70
2023-08-07T16:08:35.463Z,0.50
2023-08-07T16:09:46.959Z,0.80
2023-08-07T16:10:58.487Z,0.60
2023-08-07T16:12:10.048Z,0.40
2023-08-07T16:13:23.681Z,1.10
2023-08-07T16:14:36.273Z,1.00
2023-08-07T16:15:50.386Z,0.80
2023-08-07T16:17:03.011Z,0.40
2023-08-07T16:18:14.523Z,0.93
2023-08-07T16:19:26.006Z,0.50
2023-08-07T16:20:38.707Z,0.70
2023-08-07T16:21:50.219Z,0.68
2023-08-07T16:23:01.719Z,0.70
2023-08-07T16:24:13.267Z,0.50
2023-08-07T16:25:24.787Z,0.70
2023-08-07T16:26:36.363Z,0.90
2023-08-07T16:27:50.303Z,0.60
2023-08-07T16:29:01.808Z,0.80
2023-08-07T16:30:13.416Z,1.48
2023-08-07T16:31:25.044Z,0.55
2023-08-07T16:32:37.311Z,1.10
2023-08-07T16:33:48.891Z,0.80
2023-08-07T16:35:00.672Z,0.75
2023-08-07T16:36:12.202Z,1.08
2023-08-07T16:37:23.688Z,0.50
2023-08-07T16:38:35.197Z,0.75
2023-08-07T16:39:46.714Z,0.70
2023-08-07T16:40:58.235Z,0.80
2023-08-07T16:42:09.729Z,1.05
2023-08-07T16:43:21.204Z,0.82
2023-08-07T16:44:32.738Z,0.80
2023-08-07T16:45:44.235Z,0.88
2023-08-07T16:46:56.113Z,1.10
2023-08-07T16:48:08.110Z,0.73
2023-08-07T16:49:19.636Z,0.80
2023-08-07T16:50:31.172Z,0.65
2023-08-07T16:51:42.665Z,0.50
2023-08-07T16:52:54.617Z,0.60
2023-08-07T16:54:06.108Z,0.75
2023-08-07T16:55:17.643Z,1.35
2023-08-07T16:56:29.433Z,0.80
2023-08-07T16:57:40.931Z,0.63
2023-08-07T16:58:52.474Z,0.75
2023-08-07T17:00:05.286Z,1.08
2023-08-07T17:01:17.242Z,0.85
2023-08-07T17:02:28.878Z,0.90
2023-08-07T17:03:40.437Z,1.00
2023-08-07T17:04:51.935Z,0.70
2023-08-07T17:06:03.545Z,0.50
2023-08-07T17:07:15.376Z,0.80
2023-08-07T17:08:26.860Z,1.30
2023-08-07T17:09:38.349Z,0.52
2023-08-07T17:10:50.130Z,0.68
2023-08-07T17:12:02.930Z,1.08
2023-08-07T17:13:14.511Z,0.95
2023-08-07T17:14:26.384Z,0.68
2023-08-07T17:15:38.880Z,0.88
2023-08-07T17:16:50.609Z,0.70
2023-08-07T17:18:04.075Z,0.90
2023-08-07T17:19:15.803Z,1.17
2023-08-07T17:20:27.313Z,0.68
2023-08-07T17:21:38.881Z,0.77
2023-08-07T17:22:50.353Z,0.70
2023-08-07T17:24:01.904Z,0.90
2023-08-07T17:25:13.401Z,0.70
2023-08-07T17:26:24.970Z,1.20
2023-08-07T17:27:36.452Z,0.50
2023-08-07T17:28:47.973Z,0.68
2023-08-07T17:29:59.532Z,0.82
2023-08-07T17:31:11.031Z,1.00
2023-08-07T17:32:22.714Z,0.65
2023-08-07T17:33:36.973Z,0.70
2023-08-07T17:34:48.478Z,0.90
2023-08-07T17:36:00.413Z,0.80
2023-08-07T17:37:11.948Z,1.08
2023-08-07T17:38:23.529Z,0.90
2023-08-07T17:39:34.999Z,0.77
2023-08-07T17:40:47.235Z,0.55
2023-08-07T17:41:58.795Z,0.80
2023-08-07T17:43:10.288Z,0.98
2023-08-07T17:44:21.824Z,0.70
2023-08-07T17:45:33.363Z,0.80
2023-08-07T17:46:44.870Z,1.13
2023-08-07T17:47:56.558Z,0.70
2023-08-07T17:49:08.135Z,0.73
2023-08-07T17:50:19.712Z,0.80
2023-08-07T17:51:31.745Z,0.60
2023-08-07T17:52:43.294Z,0.77
2023-08-07T17:53:54.788Z,0.68
2023-08-07T17:55:06.783Z,0.60
2023-08-07T17:56:18.750Z,0.70
2023-08-07T17:57:30.357Z,1.00
2023-08-07T17:58:41.922Z,1.10
2023-08-07T17:59:53.514Z,1.02
2023-08-07T18:01:05.091Z,0.68
2023-08-07T18:02:16.807Z,0.60
2023-08-07T18:03:28.291Z,0.75
2023-08-07T18:04:39.900Z,0.50
2023-08-07T18:05:51.372Z,0.82
2023-08-07T18:07:02.909Z,0.90
2023-08-07T18:08:14.487Z,0.90
2023-08-07T18:09:26.037Z,0.98
2023-08-07T18:10:37.503Z,0.88
2023-08-07T18:11:49.021Z,0.77
2023-08-07T18:13:00.580Z,0.70
2023-08-07T18:14:12.069Z,0.77
2023-08-07T18:15:23.690Z,0.77
2023-08-07T18:16:35.252Z,0.85
2023-08-07T18:17:46.848Z,1.00
2023-08-07T18:18:59.170Z,0.68
2023-08-07T18:20:10.910Z,0.75
2023-08-07T18:21:22.868Z,0.55
2023-08-07T18:22:34.566Z,0.68
2023-08-07T18:23:46.152Z,0.70
2023-08-07T18:24:57.652Z,0.70
2023-08-07T18:26:09.316Z,0.82
2023-08-07T18:27:23.365Z,0.65
2023-08-07T18:28:35.133Z,1.73
2023-08-07T18:29:46.692Z,1.40
2023-08-07T18:30:58.678Z,1.02
2023-08-07T18:32:10.416Z,1.05
2023-08-07T18:33:21.946Z,0.90
2023-08-07T18:34:33.777Z,1.03
2023-08-07T18:35:45.614Z,0.90
2023-08-07T18:36:57.447Z,0.60
2023-08-07T18:38:09.319Z,0.70
2023-08-07T18:39:20.925Z,0.90
2023-08-07T18:40:32.533Z,0.90
2023-08-07T18:41:44.184Z,0.93
2023-08-07T18:42:55.693Z,0.77
2023-08-07T18:44:07.463Z,0.93
2023-08-07T18:45:19.013Z,0.90
2023-08-07T18:46:30.552Z,0.90
2023-08-07T18:47:42.162Z,0.70
2023-08-07T18:48:53.688Z,0.60
2023-08-07T18:50:05.456Z,0.70
2023-08-07T18:51:17.863Z,0.67
2023-08-07T18:52:29.400Z,1.03
2023-08-07T18:53:41.101Z,0.80
2023-08-07T18:54:53.640Z,0.60
2023-08-07T18:56:05.119Z,0.60
2023-08-07T18:57:16.640Z,0.80
2023-08-07T18:58:28.616Z,0.57
2023-08-07T18:59:40.774Z,0.70
2023-08-07T19:00:52.327Z,0.80
2023-08-07T19:02:03.986Z,0.57
2023-08-07T19:03:17.300Z,0.80
2023-08-07T19:04:29.803Z,0.87
2023-08-07T19:05:42.189Z,1.03
2023-08-07T19:06:54.070Z,0.77
2023-08-07T19:08:05.864Z,1.00
2023-08-07T19:09:18.154Z,1.00
2023-08-07T19:10:29.774Z,1.10
2023-08-07T19:11:41.335Z,1.43
2023-08-07T19:12:52.922Z,3.70
2023-08-07T19:14:05.158Z,1.47
2023-08-07T19:15:17.492Z,1.13
2023-08-07T19:16:29.789Z,1.07
2023-08-07T19:17:41.379Z,1.13
2023-08-07T19:18:52.894Z,1.00
2023-08-07T19:20:04.925Z,1.00
2023-08-07T19:21:16.694Z,2.00
2023-08-07T19:22:28.335Z,1.03
2023-08-07T19:23:39.906Z,1.27
2023-08-07T19:24:52.210Z,0.63
2023-08-07T19:26:03.749Z,1.10
2023-08-07T19:27:15.317Z,0.90
2023-08-07T19:28:26.852Z,1.20
2023-08-07T19:29:38.385Z,1.33
2023-08-07T19:31:03.816Z,0.83
2023-08-07T19:32:17.613Z,0.97
2023-08-07T19:33:29.075Z,0.70
2023-08-07T19:34:40.519Z,0.90
2023-08-07T19:35:52.022Z,1.00
2023-08-07T19:37:04.006Z,0.90
2023-08-07T19:38:16.301Z,1.27
2023-08-07T19:39:27.853Z,0.90
2023-08-07T19:40:40.021Z,0.80
2023-08-07T19:41:51.595Z,0.90
2023-08-07T19:43:03.373Z,0.87
2023-08-07T19:44:14.941Z,1.27
2023-08-07T19:45:26.455Z,0.70
2023-08-07T19:46:37.968Z,1.10
2023-08-07T19:47:49.768Z,0.90
2023-08-07T19:49:01.351Z,1.10
2023-08-07T19:50:13.093Z,0.70
2023-08-07T19:51:24.623Z,0.63
2023-08-07T19:52:36.196Z,0.60
2023-08-07T19:53:59.716Z,0.77
2023-08-07T19:55:12.669Z,1.07
2023-08-07T19:56:24.209Z,1.23
2023-08-07T19:57:36.008Z,0.90
2023-08-07T19:58:47.516Z,0.73
2023-08-07T19:59:59.059Z,0.60
2023-08-07T20:01:10.736Z,0.80
2023-08-07T20:02:22.284Z,0.90
2023-08-07T20:03:33.933Z,0.80
2023-08-07T20:04:45.499Z,0.93
2023-08-07T20:05:58.342Z,0.67
2023-08-07T20:07:09.908Z,0.80
2023-08-07T20:08:21.412Z,0.70
2023-08-07T20:09:33.313Z,0.80
2023-08-07T20:10:44.832Z,0.87
2023-08-07T20:11:56.718Z,0.97
2023-08-07T20:13:08.648Z,0.83
2023-08-07T20:14:20.646Z,0.60
2023-08-07T20:15:32.337Z,0.93
2023-08-07T20:16:43.916Z,0.80
2023-08-07T20:17:55.585Z,1.17
2023-08-07T20:19:07.138Z,0.80
2023-08-07T20:20:21.382Z,1.03
2023-08-07T20:21:33.083Z,0.93
2023-08-07T20:22:44.635Z,1.00
2023-08-07T20:23:56.170Z,0.70
2023-08-07T20:25:08.071Z,1.00
2023-08-07T20:26:20.185Z,0.83
2023-08-07T20:27:31.684Z,0.90
2023-08-07T20:28:43.171Z,1.10
2023-08-07T20:29:54.732Z,0.90
2023-08-07T20:31:06.277Z,1.10
2023-08-07T20:32:17.869Z,1.10
2023-08-07T20:33:29.419Z,0.73
2023-08-07T20:34:42.709Z,0.80
2023-08-07T20:35:54.301Z,0.93
2023-08-07T20:37:06.127Z,0.83
2023-08-07T20:38:17.636Z,1.00
2023-08-07T20:39:29.541Z,0.90
2023-08-07T20:40:41.136Z,0.70
2023-08-07T20:41:52.710Z,1.13
2023-08-07T20:43:04.406Z,0.70
2023-08-07T20:44:15.988Z,1.10
2023-08-07T20:45:27.558Z,0.90
2023-08-07T20:46:39.545Z,0.83
2023-08-07T20:47:51.098Z,0.83
2023-08-07T20:49:02.644Z,1.00